sensor_id;sensor_type;location;lat;lon;timestamp;temperature;humidity
35613;DHT22;22054;51.646;7.078;2022-09-21T00:01:16;9.00;99.90
35613;DHT22;22054;51.646;7.078;2022-09-21T00:04:16;9.00;99.90
35613;DHT22;22054;51.646;7.078;2022-09-21T00:06:41;8.90;99.90
35613;DHT22;22054;51.646;7.078;2022-09-21T00:09:07;8.80;99.90
35613;DHT22;22054;51.646;7.078;2022-09-21T00:11:34;8.80;99.90
35613;DHT22;22054;51.646;7.078;2022-09-21T00:14:06;8.90;99.90
35613;DHT22;22054;51.646;7.078;2022-09-21T00:16:34;8.90;99.90
35613;DHT22;22054;51.646;7.078;2022-09-21T00:19:00;8.90;99.90
35613;DHT22;22054;51.646;7.078;2022-09-21T00:21:26;8.80;99.90
35613;DHT22;22054;51.646;7.078;2022-09-21T00:23:52;8.80;99.90
35613;DHT22;22054;51.646;7.078;2022-09-21T00:26:23;8.80;99.90
35613;DHT22;22054;51.646;7.078;2022-09-21T00:28:52;8.80;99.90
35613;DHT22;22054;51.646;7.078;2022-09-21T00:31:19;8.80;99.90
35613;DHT22;22054;51.646;7.078;2022-09-21T00:33:45;8.70;99.90
35613;DHT22;22054;51.646;7.078;2022-09-21T00:36:15;8.70;99.90
35613;DHT22;22054;51.646;7.078;2022-09-21T00:38:42;8.70;99.90
35613;DHT22;22054;51.646;7.078;2022-09-21T00:41:10;8.70;99.90
35613;DHT22;22054;51.646;7.078;2022-09-21T00:46:40;8.60;99.90
35613;DHT22;22054;51.646;7.078;2022-09-21T00:49:07;8.50;99.90
35613;DHT22;22054;51.646;7.078;2022-09-21T00:51:34;8.50;99.90
35613;DHT22;22054;51.646;7.078;2022-09-21T00:54:07;8.50;99.90
35613;DHT22;22054;51.646;7.078;2022-09-21T00:56:43;8.50;99.90
35613;DHT22;22054;51.646;7.078;2022-09-21T00:59:10;8.50;99.90
35613;DHT22;22054;51.646;7.078;2022-09-21T01:01:38;8.50;99.90
35613;DHT22;22054;51.646;7.078;2022-09-21T01:04:04;8.50;99.90
35613;DHT22;22054;51.646;7.078;2022-09-21T01:06:32;8.40;99.90
35613;DHT22;22054;51.646;7.078;2022-09-21T01:08:58;8.40;99.90
35613;DHT22;22054;51.646;7.078;2022-09-21T01:11:41;8.50;99.90
35613;DHT22;22054;51.646;7.078;2022-09-21T01:17:23;8.30;99.90
35613;DHT22;22054;51.646;7.078;2022-09-21T01:20:54;8.30;99.90
35613;DHT22;22054;51.646;7.078;2022-09-21T01:32:30;8.10;99.90
35613;DHT22;22054;51.646;7.078;2022-09-21T01:35:04;8.10;99.90
35613;DHT22;22054;51.646;7.078;2022-09-21T01:37:53;8.10;99.90
35613;DHT22;22054;51.646;7.078;2022-09-21T01:40:42;8.00;99.90
35613;DHT22;22054;51.646;7.078;2022-09-21T01:43:20;8.10;99.90
35613;DHT22;22054;51.646;7.078;2022-09-21T01:45:51;8.10;99.90
35613;DHT22;22054;51.646;7.078;2022-09-21T01:48:20;8.10;99.90
35613;DHT22;22054;51.646;7.078;2022-09-21T01:50:53;8.10;99.90
35613;DHT22;22054;51.646;7.078;2022-09-21T01:53:36;8.10;99.90
35613;DHT22;22054;51.646;7.078;2022-09-21T01:56:23;8.10;99.90
35613;DHT22;22054;51.646;7.078;2022-09-21T02:01:49;8.10;99.90
35613;DHT22;22054;51.646;7.078;2022-09-21T02:04:16;8.10;99.90
35613;DHT22;22054;51.646;7.078;2022-09-21T02:06:45;8.00;99.90
35613;DHT22;22054;51.646;7.078;2022-09-21T02:09:11;8.00;99.90
35613;DHT22;22054;51.646;7.078;2022-09-21T02:11:37;7.90;99.90
35613;DHT22;22054;51.646;7.078;2022-09-21T02:14:08;7.90;99.90
35613;DHT22;22054;51.646;7.078;2022-09-21T02:17:04;7.90;99.90
35613;DHT22;22054;51.646;7.078;2022-09-21T02:19:56;7.90;99.90
35613;DHT22;22054;51.646;7.078;2022-09-21T02:25:48;7.90;99.90
35613;DHT22;22054;51.646;7.078;2022-09-21T02:31:29;7.90;99.90
35613;DHT22;22054;51.646;7.078;2022-09-21T02:34:21;7.80;99.90
35613;DHT22;22054;51.646;7.078;2022-09-21T02:36:54;7.80;99.90
35613;DHT22;22054;51.646;7.078;2022-09-21T02:39:56;7.80;99.90
35613;DHT22;22054;51.646;7.078;2022-09-21T02:42:35;7.70;99.90
35613;DHT22;22054;51.646;7.078;2022-09-21T02:45:14;7.80;99.90
35613;DHT22;22054;51.646;7.078;2022-09-21T02:48:00;7.70;99.90
35613;DHT22;22054;51.646;7.078;2022-09-21T02:50:40;7.70;99.90
35613;DHT22;22054;51.646;7.078;2022-09-21T02:53:10;7.70;99.90
35613;DHT22;22054;51.646;7.078;2022-09-21T02:55:39;7.70;99.90
35613;DHT22;22054;51.646;7.078;2022-09-21T02:58:07;7.70;99.90
35613;DHT22;22054;51.646;7.078;2022-09-21T03:00:35;7.70;99.90
35613;DHT22;22054;51.646;7.078;2022-09-21T03:03:14;7.70;99.90
35613;DHT22;22054;51.646;7.078;2022-09-21T03:05:45;7.70;99.90
35613;DHT22;22054;51.646;7.078;2022-09-21T03:08:13;7.70;99.90
35613;DHT22;22054;51.646;7.078;2022-09-21T03:10:39;7.80;99.90
35613;DHT22;22054;51.646;7.078;2022-09-21T03:13:06;7.80;99.90
35613;DHT22;22054;51.646;7.078;2022-09-21T03:15:38;7.90;99.90
35613;DHT22;22054;51.646;7.078;2022-09-21T03:18:06;7.90;99.90
35613;DHT22;22054;51.646;7.078;2022-09-21T03:20:38;7.90;99.90
35613;DHT22;22054;51.646;7.078;2022-09-21T03:23:06;7.90;99.90
35613;DHT22;22054;51.646;7.078;2022-09-21T03:25:32;7.90;99.90
35613;DHT22;22054;51.646;7.078;2022-09-21T03:27:58;7.90;99.90
35613;DHT22;22054;51.646;7.078;2022-09-21T03:30:26;7.90;99.90
35613;DHT22;22054;51.646;7.078;2022-09-21T03:32:54;8.00;99.90
35613;DHT22;22054;51.646;7.078;2022-09-21T03:35:22;8.00;99.90
35613;DHT22;22054;51.646;7.078;2022-09-21T03:37:48;8.00;99.90
35613;DHT22;22054;51.646;7.078;2022-09-21T03:40:16;8.00;99.90
35613;DHT22;22054;51.646;7.078;2022-09-21T03:42:42;8.00;99.90
35613;DHT22;22054;51.646;7.078;2022-09-21T03:45:10;8.00;99.90
35613;DHT22;22054;51.646;7.078;2022-09-21T03:47:37;8.00;99.90
35613;DHT22;22054;51.646;7.078;2022-09-21T03:50:05;7.90;99.90
35613;DHT22;22054;51.646;7.078;2022-09-21T03:52:31;7.90;99.90
35613;DHT22;22054;51.646;7.078;2022-09-21T03:54:57;7.90;99.90
35613;DHT22;22054;51.646;7.078;2022-09-21T03:57:23;7.80;99.90
35613;DHT22;22054;51.646;7.078;2022-09-21T03:59:49;7.80;99.90
35613;DHT22;22054;51.646;7.078;2022-09-21T04:02:15;7.80;99.90
35613;DHT22;22054;51.646;7.078;2022-09-21T04:04:41;7.70;99.90
35613;DHT22;22054;51.646;7.078;2022-09-21T04:07:07;7.80;99.90
35613;DHT22;22054;51.646;7.078;2022-09-21T04:09:33;7.70;99.90
35613;DHT22;22054;51.646;7.078;2022-09-21T04:11:58;7.70;99.90
35613;DHT22;22054;51.646;7.078;2022-09-21T04:14:24;7.60;99.90
35613;DHT22;22054;51.646;7.078;2022-09-21T04:16:50;7.60;99.90
35613;DHT22;22054;51.646;7.078;2022-09-21T04:19:17;7.60;99.90
35613;DHT22;22054;51.646;7.078;2022-09-21T04:21:43;7.60;99.90
35613;DHT22;22054;51.646;7.078;2022-09-21T04:24:09;7.50;99.90
35613;DHT22;22054;51.646;7.078;2022-09-21T04:26:35;7.50;99.90
35613;DHT22;22054;51.646;7.078;2022-09-21T04:29:02;7.50;99.90
35613;DHT22;22054;51.646;7.078;2022-09-21T04:31:28;7.40;99.90
35613;DHT22;22054;51.646;7.078;2022-09-21T04:33:55;7.40;99.90
35613;DHT22;22054;51.646;7.078;2022-09-21T04:36:23;7.40;99.90
35613;DHT22;22054;51.646;7.078;2022-09-21T04:38:49;7.40;99.90
35613;DHT22;22054;51.646;7.078;2022-09-21T04:41:16;7.40;99.90
35613;DHT22;22054;51.646;7.078;2022-09-21T04:43:43;7.30;99.90
35613;DHT22;22054;51.646;7.078;2022-09-21T04:46:12;7.40;99.90
35613;DHT22;22054;51.646;7.078;2022-09-21T04:48:40;7.30;99.90
35613;DHT22;22054;51.646;7.078;2022-09-21T04:51:07;7.30;99.90
35613;DHT22;22054;51.646;7.078;2022-09-21T04:53:37;7.30;99.90
35613;DHT22;22054;51.646;7.078;2022-09-21T04:56:06;7.30;99.90
35613;DHT22;22054;51.646;7.078;2022-09-21T04:58:33;7.30;99.90
35613;DHT22;22054;51.646;7.078;2022-09-21T05:01:00;7.20;99.90
35613;DHT22;22054;51.646;7.078;2022-09-21T05:03:26;7.20;99.90
35613;DHT22;22054;51.646;7.078;2022-09-21T05:05:54;7.20;99.90
35613;DHT22;22054;51.646;7.078;2022-09-21T05:08:23;7.20;99.90
35613;DHT22;22054;51.646;7.078;2022-09-21T05:11:10;7.20;99.90
35613;DHT22;22054;51.646;7.078;2022-09-21T05:13:38;7.20;99.90
35613;DHT22;22054;51.646;7.078;2022-09-21T05:16:04;7.20;99.90
35613;DHT22;22054;51.646;7.078;2022-09-21T05:18:30;7.20;99.90
35613;DHT22;22054;51.646;7.078;2022-09-21T05:20:57;7.20;99.90
35613;DHT22;22054;51.646;7.078;2022-09-21T05:23:25;7.30;99.90
35613;DHT22;22054;51.646;7.078;2022-09-21T05:25:52;7.30;99.90
35613;DHT22;22054;51.646;7.078;2022-09-21T05:28:18;7.30;99.90
35613;DHT22;22054;51.646;7.078;2022-09-21T05:30:47;7.30;99.90
35613;DHT22;22054;51.646;7.078;2022-09-21T05:33:25;7.30;99.90
35613;DHT22;22054;51.646;7.078;2022-09-21T05:38:37;7.30;99.90
35613;DHT22;22054;51.646;7.078;2022-09-21T05:41:04;7.20;99.90
35613;DHT22;22054;51.646;7.078;2022-09-21T05:43:30;7.20;99.90
35613;DHT22;22054;51.646;7.078;2022-09-21T05:46:17;7.20;99.90
35613;DHT22;22054;51.646;7.078;2022-09-21T05:48:57;7.20;99.90
35613;DHT22;22054;51.646;7.078;2022-09-21T05:52:12;7.20;99.90
35613;DHT22;22054;51.646;7.078;2022-09-21T05:57:50;7.20;99.90
35613;DHT22;22054;51.646;7.078;2022-09-21T06:01:12;7.30;99.90
35613;DHT22;22054;51.646;7.078;2022-09-21T06:03:51;7.30;99.90
35613;DHT22;22054;51.646;7.078;2022-09-21T06:06:19;7.30;99.90
35613;DHT22;22054;51.646;7.078;2022-09-21T06:08:45;7.40;99.90
35613;DHT22;22054;51.646;7.078;2022-09-21T06:11:11;7.40;99.90
35613;DHT22;22054;51.646;7.078;2022-09-21T06:13:38;7.50;99.90
35613;DHT22;22054;51.646;7.078;2022-09-21T06:16:05;7.50;99.90
35613;DHT22;22054;51.646;7.078;2022-09-21T06:18:36;7.60;99.90
35613;DHT22;22054;51.646;7.078;2022-09-21T06:21:06;7.70;99.90
35613;DHT22;22054;51.646;7.078;2022-09-21T06:23:32;7.80;99.90
35613;DHT22;22054;51.646;7.078;2022-09-21T06:25:58;7.90;99.90
35613;DHT22;22054;51.646;7.078;2022-09-21T06:28:24;8.00;99.90
35613;DHT22;22054;51.646;7.078;2022-09-21T06:30:51;8.10;99.90
35613;DHT22;22054;51.646;7.078;2022-09-21T06:33:18;8.20;99.90
35613;DHT22;22054;51.646;7.078;2022-09-21T06:35:52;8.30;99.90
35613;DHT22;22054;51.646;7.078;2022-09-21T06:38:19;8.40;99.90
35613;DHT22;22054;51.646;7.078;2022-09-21T06:40:45;8.50;99.90
35613;DHT22;22054;51.646;7.078;2022-09-21T06:43:11;8.60;99.90
35613;DHT22;22054;51.646;7.078;2022-09-21T06:45:37;8.60;99.90
35613;DHT22;22054;51.646;7.078;2022-09-21T06:48:02;8.70;99.90
35613;DHT22;22054;51.646;7.078;2022-09-21T06:50:28;8.80;99.90
35613;DHT22;22054;51.646;7.078;2022-09-21T06:52:54;8.90;99.90
35613;DHT22;22054;51.646;7.078;2022-09-21T06:55:19;9.10;99.90
35613;DHT22;22054;51.646;7.078;2022-09-21T06:57:45;9.20;99.90
35613;DHT22;22054;51.646;7.078;2022-09-21T07:00:12;9.30;99.90
35613;DHT22;22054;51.646;7.078;2022-09-21T07:02:45;9.50;99.90
35613;DHT22;22054;51.646;7.078;2022-09-21T07:05:11;9.60;99.90
35613;DHT22;22054;51.646;7.078;2022-09-21T07:07:37;9.70;99.90
35613;DHT22;22054;51.646;7.078;2022-09-21T07:10:04;9.90;99.90
35613;DHT22;22054;51.646;7.078;2022-09-21T07:12:33;10.20;99.90
35613;DHT22;22054;51.646;7.078;2022-09-21T07:15:00;10.20;99.90
35613;DHT22;22054;51.646;7.078;2022-09-21T07:17:34;10.30;99.90
35613;DHT22;22054;51.646;7.078;2022-09-21T07:20:02;10.50;99.90
35613;DHT22;22054;51.646;7.078;2022-09-21T07:22:30;10.60;99.90
35613;DHT22;22054;51.646;7.078;2022-09-21T07:24:56;10.80;99.90
35613;DHT22;22054;51.646;7.078;2022-09-21T07:27:23;10.90;99.90
35613;DHT22;22054;51.646;7.078;2022-09-21T07:29:50;11.00;99.90
35613;DHT22;22054;51.646;7.078;2022-09-21T07:32:16;11.20;99.90
35613;DHT22;22054;51.646;7.078;2022-09-21T07:34:42;11.30;99.90
35613;DHT22;22054;51.646;7.078;2022-09-21T07:37:08;11.70;99.90
35613;DHT22;22054;51.646;7.078;2022-09-21T07:39:34;11.60;99.90
35613;DHT22;22054;51.646;7.078;2022-09-21T07:42:00;11.80;99.90
35613;DHT22;22054;51.646;7.078;2022-09-21T07:44:26;11.90;99.90
35613;DHT22;22054;51.646;7.078;2022-09-21T07:46:51;12.10;99.90
35613;DHT22;22054;51.646;7.078;2022-09-21T07:49:17;12.20;99.90
35613;DHT22;22054;51.646;7.078;2022-09-21T07:51:43;12.40;99.90
35613;DHT22;22054;51.646;7.078;2022-09-21T07:54:09;12.50;99.90
35613;DHT22;22054;51.646;7.078;2022-09-21T07:56:38;12.80;99.90
35613;DHT22;22054;51.646;7.078;2022-09-21T07:59:04;13.00;99.90
35613;DHT22;22054;51.646;7.078;2022-09-21T08:01:31;13.00;99.90
35613;DHT22;22054;51.646;7.078;2022-09-21T08:03:59;13.20;99.90
35613;DHT22;22054;51.646;7.078;2022-09-21T08:06:27;13.30;99.90
35613;DHT22;22054;51.646;7.078;2022-09-21T08:08:54;13.40;99.90
35613;DHT22;22054;51.646;7.078;2022-09-21T08:11:21;13.60;99.90
35613;DHT22;22054;51.646;7.078;2022-09-21T08:13:50;13.70;99.40
35613;DHT22;22054;51.646;7.078;2022-09-21T08:16:17;13.80;96.30
35613;DHT22;22054;51.646;7.078;2022-09-21T08:18:43;13.90;90.80
35613;DHT22;22054;51.646;7.078;2022-09-21T08:21:10;14.00;93.40
35613;DHT22;22054;51.646;7.078;2022-09-21T08:23:36;14.10;85.70
35613;DHT22;22054;51.646;7.078;2022-09-21T08:26:05;14.20;73.70
35613;DHT22;22054;51.646;7.078;2022-09-21T08:28:32;14.30;65.10
35613;DHT22;22054;51.646;7.078;2022-09-21T08:31:03;14.40;70.90
35613;DHT22;22054;51.646;7.078;2022-09-21T08:33:30;14.50;52.80
35613;DHT22;22054;51.646;7.078;2022-09-21T08:35:58;14.60;50.20
35613;DHT22;22054;51.646;7.078;2022-09-21T08:38:25;14.80;1.00
35613;DHT22;22054;51.646;7.078;2022-09-21T08:40:52;14.80;1.00
35613;DHT22;22054;51.646;7.078;2022-09-21T08:43:33;14.90;1.00
35613;DHT22;22054;51.646;7.078;2022-09-21T08:46:11;15.10;1.00
35613;DHT22;22054;51.646;7.078;2022-09-21T08:48:44;15.30;1.00
35613;DHT22;22054;51.646;7.078;2022-09-21T08:51:19;15.40;1.00
35613;DHT22;22054;51.646;7.078;2022-09-21T08:53:50;15.50;1.00
35613;DHT22;22054;51.646;7.078;2022-09-21T08:56:19;15.60;99.90
35613;DHT22;22054;51.646;7.078;2022-09-21T08:58:46;15.60;99.90
35613;DHT22;22054;51.646;7.078;2022-09-21T09:06:58;15.90;1.00
35613;DHT22;22054;51.646;7.078;2022-09-21T09:13:00;15.90;1.00
35613;DHT22;22054;51.646;7.078;2022-09-21T09:16:04;15.90;1.00
35613;DHT22;22054;51.646;7.078;2022-09-21T09:18:54;16.10;99.90
35613;DHT22;22054;51.646;7.078;2022-09-21T09:21:28;16.20;99.90
35613;DHT22;22054;51.646;7.078;2022-09-21T09:24:04;16.10;99.90
35613;DHT22;22054;51.646;7.078;2022-09-21T09:27:10;16.20;1.00
35613;DHT22;22054;51.646;7.078;2022-09-21T09:30:00;16.40;1.00
35613;DHT22;22054;51.646;7.078;2022-09-21T09:32:40;16.50;1.00
35613;DHT22;22054;51.646;7.078;2022-09-21T09:38:44;16.30;99.90
35613;DHT22;22054;51.646;7.078;2022-09-21T09:43:52;16.60;1.00
35613;DHT22;22054;51.646;7.078;2022-09-21T09:52:04;17.10;99.90
35613;DHT22;22054;51.646;7.078;2022-09-21T09:54:34;17.30;99.90
35613;DHT22;22054;51.646;7.078;2022-09-21T09:57:04;17.30;99.90
35613;DHT22;22054;51.646;7.078;2022-09-21T09:59:47;17.30;99.90
35613;DHT22;22054;51.646;7.078;2022-09-21T10:02:23;17.30;99.90
35613;DHT22;22054;51.646;7.078;2022-09-21T10:04:59;17.40;1.00
35613;DHT22;22054;51.646;7.078;2022-09-21T10:07:41;17.60;99.90
35613;DHT22;22054;51.646;7.078;2022-09-21T10:13:18;18.00;99.90
35613;DHT22;22054;51.646;7.078;2022-09-21T10:16:05;18.10;99.90
35613;DHT22;22054;51.646;7.078;2022-09-21T10:21:21;18.30;14.30
35613;DHT22;22054;51.646;7.078;2022-09-21T10:24:00;18.50;1.00
35613;DHT22;22054;51.646;7.078;2022-09-21T10:26:34;18.40;1.00
35613;DHT22;22054;51.646;7.078;2022-09-21T10:32:03;18.80;1.00
35613;DHT22;22054;51.646;7.078;2022-09-21T10:34:57;19.10;1.00
35613;DHT22;22054;51.646;7.078;2022-09-21T10:37:27;19.20;1.00
35613;DHT22;22054;51.646;7.078;2022-09-21T10:42:51;19.90;1.00
35613;DHT22;22054;51.646;7.078;2022-09-21T10:45:24;20.10;1.00
35613;DHT22;22054;51.646;7.078;2022-09-21T10:47:56;20.50;99.90
35613;DHT22;22054;51.646;7.078;2022-09-21T10:50:27;20.90;99.90
35613;DHT22;22054;51.646;7.078;2022-09-21T10:55:38;22.20;99.90
35613;DHT22;22054;51.646;7.078;2022-09-21T10:58:10;22.60;99.90
35613;DHT22;22054;51.646;7.078;2022-09-21T11:00:42;23.50;99.90
35613;DHT22;22054;51.646;7.078;2022-09-21T11:06:23;25.00;51.10
35613;DHT22;22054;51.646;7.078;2022-09-21T11:09:01;25.00;20.30
35613;DHT22;22054;51.646;7.078;2022-09-21T11:11:51;25.70;1.00
35613;DHT22;22054;51.646;7.078;2022-09-21T11:17:16;25.70;1.00
35613;DHT22;22054;51.646;7.078;2022-09-21T11:22:39;26.70;1.00
35613;DHT22;22054;51.646;7.078;2022-09-21T11:28:20;26.80;1.00
35613;DHT22;22054;51.646;7.078;2022-09-21T11:37:14;29.00;1.00
35613;DHT22;22054;51.646;7.078;2022-09-21T11:39:49;30.50;1.00
35613;DHT22;22054;51.646;7.078;2022-09-21T11:46:13;31.90;1.00
35613;DHT22;22054;51.646;7.078;2022-09-21T11:49:23;33.20;1.00
35613;DHT22;22054;51.646;7.078;2022-09-21T11:55:01;35.20;1.00
35613;DHT22;22054;51.646;7.078;2022-09-21T12:01:13;36.00;1.00
35613;DHT22;22054;51.646;7.078;2022-09-21T12:04:14;35.80;1.00
35613;DHT22;22054;51.646;7.078;2022-09-21T12:07:28;36.10;1.00
35613;DHT22;22054;51.646;7.078;2022-09-21T12:13:26;35.00;1.00
35613;DHT22;22054;51.646;7.078;2022-09-21T12:18:47;36.50;1.00
35613;DHT22;22054;51.646;7.078;2022-09-21T12:21:48;37.00;1.00
35613;DHT22;22054;51.646;7.078;2022-09-21T12:24:26;36.50;1.00
35613;DHT22;22054;51.646;7.078;2022-09-21T12:26:57;36.80;1.00
35613;DHT22;22054;51.646;7.078;2022-09-21T12:29:33;37.10;1.00
35613;DHT22;22054;51.646;7.078;2022-09-21T12:35:24;38.60;1.00
35613;DHT22;22054;51.646;7.078;2022-09-21T12:38:14;38.60;1.00
35613;DHT22;22054;51.646;7.078;2022-09-21T12:41:19;37.10;1.00
35613;DHT22;22054;51.646;7.078;2022-09-21T12:44:04;37.50;1.00
35613;DHT22;22054;51.646;7.078;2022-09-21T12:46:42;37.60;1.00
35613;DHT22;22054;51.646;7.078;2022-09-21T12:49:16;36.70;1.00
35613;DHT22;22054;51.646;7.078;2022-09-21T12:51:51;35.90;1.00
35613;DHT22;22054;51.646;7.078;2022-09-21T12:54:34;35.90;1.00
35613;DHT22;22054;51.646;7.078;2022-09-21T12:57:30;35.90;1.00
35613;DHT22;22054;51.646;7.078;2022-09-21T13:00:19;34.10;1.00
35613;DHT22;22054;51.646;7.078;2022-09-21T13:02:57;31.60;1.00
35613;DHT22;22054;51.646;7.078;2022-09-21T13:06:05;29.20;1.00
35613;DHT22;22054;51.646;7.078;2022-09-21T13:08:36;26.70;1.00
35613;DHT22;22054;51.646;7.078;2022-09-21T13:11:05;25.20;1.00
35613;DHT22;22054;51.646;7.078;2022-09-21T13:13:36;24.20;1.00
35613;DHT22;22054;51.646;7.078;2022-09-21T13:16:05;23.20;1.00
35613;DHT22;22054;51.646;7.078;2022-09-21T13:18:34;23.00;1.00
35613;DHT22;22054;51.646;7.078;2022-09-21T13:21:18;25.20;1.00
35613;DHT22;22054;51.646;7.078;2022-09-21T13:24:02;28.70;1.00
35613;DHT22;22054;51.646;7.078;2022-09-21T13:29:27;32.10;1.00
35613;DHT22;22054;51.646;7.078;2022-09-21T13:31:58;34.00;1.00
35613;DHT22;22054;51.646;7.078;2022-09-21T13:39:45;36.70;1.00
35613;DHT22;22054;51.646;7.078;2022-09-21T13:47:42;28.00;1.00
35613;DHT22;22054;51.646;7.078;2022-09-21T13:50:42;26.50;1.00
35613;DHT22;22054;51.646;7.078;2022-09-21T13:53:29;24.70;1.00
35613;DHT22;22054;51.646;7.078;2022-09-21T13:56:07;23.80;1.00
35613;DHT22;22054;51.646;7.078;2022-09-21T13:58:43;23.60;1.00
35613;DHT22;22054;51.646;7.078;2022-09-21T14:01:30;26.20;1.00
35613;DHT22;22054;51.646;7.078;2022-09-21T14:04:02;28.50;1.00
35613;DHT22;22054;51.646;7.078;2022-09-21T14:06:40;28.30;1.00
35613;DHT22;22054;51.646;7.078;2022-09-21T14:12:18;26.90;1.00
35613;DHT22;22054;51.646;7.078;2022-09-21T14:15:09;25.60;1.00
35613;DHT22;22054;51.646;7.078;2022-09-21T14:21:08;23.40;1.00
35613;DHT22;22054;51.646;7.078;2022-09-21T14:23:36;22.60;1.00
35613;DHT22;22054;51.646;7.078;2022-09-21T14:26:31;22.30;1.00
35613;DHT22;22054;51.646;7.078;2022-09-21T14:29:06;24.40;1.00
35613;DHT22;22054;51.646;7.078;2022-09-21T14:31:41;27.30;1.00
35613;DHT22;22054;51.646;7.078;2022-09-21T14:34:15;29.90;1.00
35613;DHT22;22054;51.646;7.078;2022-09-21T14:36:46;30.70;1.00
35613;DHT22;22054;51.646;7.078;2022-09-21T14:41:52;29.30;1.00
35613;DHT22;22054;51.646;7.078;2022-09-21T14:44:27;28.40;1.00
35613;DHT22;22054;51.646;7.078;2022-09-21T14:47:15;27.80;1.00
35613;DHT22;22054;51.646;7.078;2022-09-21T14:53:50;26.20;1.00
35613;DHT22;22054;51.646;7.078;2022-09-21T15:05:36;27.00;1.00
35613;DHT22;22054;51.646;7.078;2022-09-21T15:11:56;30.00;1.00
35613;DHT22;22054;51.646;7.078;2022-09-21T15:14:38;31.50;1.00
35613;DHT22;22054;51.646;7.078;2022-09-21T15:17:27;32.50;1.00
35613;DHT22;22054;51.646;7.078;2022-09-21T15:20:13;33.00;1.00
35613;DHT22;22054;51.646;7.078;2022-09-21T15:22:44;33.50;1.00
35613;DHT22;22054;51.646;7.078;2022-09-21T15:25:11;33.60;1.00
35613;DHT22;22054;51.646;7.078;2022-09-21T15:27:42;33.70;1.00
35613;DHT22;22054;51.646;7.078;2022-09-21T15:30:22;33.50;1.00
35613;DHT22;22054;51.646;7.078;2022-09-21T15:33:01;33.80;1.00
35613;DHT22;22054;51.646;7.078;2022-09-21T15:35:29;32.90;1.00
35613;DHT22;22054;51.646;7.078;2022-09-21T15:37:57;31.20;1.00
35613;DHT22;22054;51.646;7.078;2022-09-21T15:40:30;31.20;1.00
35613;DHT22;22054;51.646;7.078;2022-09-21T15:45:51;31.90;1.00
35613;DHT22;22054;51.646;7.078;2022-09-21T15:48:23;30.80;1.00
35613;DHT22;22054;51.646;7.078;2022-09-21T15:50:53;29.40;1.00
35613;DHT22;22054;51.646;7.078;2022-09-21T15:53:37;28.70;1.00
35613;DHT22;22054;51.646;7.078;2022-09-21T15:56:19;28.70;1.00
35613;DHT22;22054;51.646;7.078;2022-09-21T15:58:47;29.00;1.00
35613;DHT22;22054;51.646;7.078;2022-09-21T16:01:20;29.00;1.00
35613;DHT22;22054;51.646;7.078;2022-09-21T16:03:48;28.70;1.00
35613;DHT22;22054;51.646;7.078;2022-09-21T16:06:24;27.80;1.00
35613;DHT22;22054;51.646;7.078;2022-09-21T16:08:52;26.50;1.00
35613;DHT22;22054;51.646;7.078;2022-09-21T16:14:13;25.80;1.00
35613;DHT22;22054;51.646;7.078;2022-09-21T16:22:35;26.20;1.00
35613;DHT22;22054;51.646;7.078;2022-09-21T16:25:33;26.30;1.00
35613;DHT22;22054;51.646;7.078;2022-09-21T16:30:50;26.60;1.00
35613;DHT22;22054;51.646;7.078;2022-09-21T16:38:56;26.70;1.00
35613;DHT22;22054;51.646;7.078;2022-09-21T16:41:35;26.50;1.00
35613;DHT22;22054;51.646;7.078;2022-09-21T16:44:05;26.40;1.00
35613;DHT22;22054;51.646;7.078;2022-09-21T16:46:34;26.20;1.00
35613;DHT22;22054;51.646;7.078;2022-09-21T16:49:00;26.10;1.00
35613;DHT22;22054;51.646;7.078;2022-09-21T16:51:27;25.30;1.00
35613;DHT22;22054;51.646;7.078;2022-09-21T16:53:54;24.40;1.00
35613;DHT22;22054;51.646;7.078;2022-09-21T16:56:20;23.20;1.00
35613;DHT22;22054;51.646;7.078;2022-09-21T16:58:46;22.00;1.00
35613;DHT22;22054;51.646;7.078;2022-09-21T17:01:14;21.00;1.00
35613;DHT22;22054;51.646;7.078;2022-09-21T17:03:45;20.30;1.00
35613;DHT22;22054;51.646;7.078;2022-09-21T17:06:19;19.60;1.00
35613;DHT22;22054;51.646;7.078;2022-09-21T17:08:47;19.10;99.90
35613;DHT22;22054;51.646;7.078;2022-09-21T17:11:14;18.60;1.00
35613;DHT22;22054;51.646;7.078;2022-09-21T17:13:49;18.30;1.00
35613;DHT22;22054;51.646;7.078;2022-09-21T17:16:16;17.80;99.90
35613;DHT22;22054;51.646;7.078;2022-09-21T17:18:47;17.50;99.90
35613;DHT22;22054;51.646;7.078;2022-09-21T17:21:14;17.20;1.00
35613;DHT22;22054;51.646;7.078;2022-09-21T17:23:40;16.90;1.00
35613;DHT22;22054;51.646;7.078;2022-09-21T17:26:15;16.70;99.90
35613;DHT22;22054;51.646;7.078;2022-09-21T17:28:45;16.50;1.00
35613;DHT22;22054;51.646;7.078;2022-09-21T17:31:13;16.20;1.00
35613;DHT22;22054;51.646;7.078;2022-09-21T17:33:43;16.00;1.00
35613;DHT22;22054;51.646;7.078;2022-09-21T17:36:15;15.90;99.90
35613;DHT22;22054;51.646;7.078;2022-09-21T17:38:42;15.60;1.00
35613;DHT22;22054;51.646;7.078;2022-09-21T17:44:07;15.30;1.00
35613;DHT22;22054;51.646;7.078;2022-09-21T17:46:56;15.10;99.90
35613;DHT22;22054;51.646;7.078;2022-09-21T17:49:25;15.00;99.90
35613;DHT22;22054;51.646;7.078;2022-09-21T17:51:51;14.90;33.90
35613;DHT22;22054;51.646;7.078;2022-09-21T17:54:36;14.70;99.90
35613;DHT22;22054;51.646;7.078;2022-09-21T17:57:29;14.60;1.00
35613;DHT22;22054;51.646;7.078;2022-09-21T18:00:15;14.50;1.00
35613;DHT22;22054;51.646;7.078;2022-09-21T18:02:44;14.40;1.00
35613;DHT22;22054;51.646;7.078;2022-09-21T18:05:25;14.30;97.50
35613;DHT22;22054;51.646;7.078;2022-09-21T18:07:52;14.20;99.90
35613;DHT22;22054;51.646;7.078;2022-09-21T18:10:23;14.10;99.90
35613;DHT22;22054;51.646;7.078;2022-09-21T18:13:02;14.10;99.90
35613;DHT22;22054;51.646;7.078;2022-09-21T18:15:39;14.00;1.00
35613;DHT22;22054;51.646;7.078;2022-09-21T18:20:59;13.70;99.90
35613;DHT22;22054;51.646;7.078;2022-09-21T18:26:45;13.60;1.00
35613;DHT22;22054;51.646;7.078;2022-09-21T18:29:33;13.60;1.00
35613;DHT22;22054;51.646;7.078;2022-09-21T18:37:39;13.40;1.00
35613;DHT22;22054;51.646;7.078;2022-09-21T18:49:56;13.00;1.00
35613;DHT22;22054;51.646;7.078;2022-09-21T18:55:24;12.90;1.00
35613;DHT22;22054;51.646;7.078;2022-09-21T18:57:52;12.80;1.00
35613;DHT22;22054;51.646;7.078;2022-09-21T19:00:19;12.70;1.00
35613;DHT22;22054;51.646;7.078;2022-09-21T19:02:46;12.70;1.00
35613;DHT22;22054;51.646;7.078;2022-09-21T19:05:12;12.60;1.00
35613;DHT22;22054;51.646;7.078;2022-09-21T19:07:53;12.60;1.00
35613;DHT22;22054;51.646;7.078;2022-09-21T19:10:35;12.50;1.00
35613;DHT22;22054;51.646;7.078;2022-09-21T19:13:29;12.50;1.00
35613;DHT22;22054;51.646;7.078;2022-09-21T19:16:12;12.50;1.00
35613;DHT22;22054;51.646;7.078;2022-09-21T19:25:33;12.40;1.00
35613;DHT22;22054;51.646;7.078;2022-09-21T19:28:35;12.40;1.00
35613;DHT22;22054;51.646;7.078;2022-09-21T19:31:15;12.30;1.00
35613;DHT22;22054;51.646;7.078;2022-09-21T19:33:43;12.30;6.40
35613;DHT22;22054;51.646;7.078;2022-09-21T19:36:10;12.30;5.80
35613;DHT22;22054;51.646;7.078;2022-09-21T19:38:37;12.20;5.90